sensor_id;sensor_type;location;lat;lon;timestamp;pressure;altitude;pressure_sealevel;temperature;humidity
13235;BME280;6683;48.506;9.050;2023-04-27T00:02:17;98179.09;;;10.96;65.31
13235;BME280;6683;48.506;9.050;2023-04-27T00:05:20;98181.13;;;10.94;65.37
13235;BME280;6683;48.506;9.050;2023-04-27T00:08:24;98177.84;;;10.92;65.50
13235;BME280;6683;48.506;9.050;2023-04-27T00:11:26;98171.94;;;10.90;65.64
13235;BME280;6683;48.506;9.050;2023-04-27T00:14:29;98177.59;;;10.87;65.71
13235;BME280;6683;48.506;9.050;2023-04-27T00:17:31;98165.97;;;10.81;65.68
13235;BME280;6683;48.506;9.050;2023-04-27T00:20:33;98169.78;;;10.79;65.61
13235;BME280;6683;48.506;9.050;2023-04-27T00:23:37;98169.56;;;10.74;66.06
13235;BME280;6683;48.506;9.050;2023-04-27T00:26:40;98169.72;;;10.72;65.99
13235;BME280;6683;48.506;9.050;2023-04-27T00:29:42;98175.19;;;10.71;66.14
13235;BME280;6683;48.506;9.050;2023-04-27T00:32:45;98171.72;;;10.70;65.70
13235;BME280;6683;48.506;9.050;2023-04-27T00:35:47;98167.66;;;10.68;65.98
13235;BME280;6683;48.506;9.050;2023-04-27T00:38:51;98169.69;;;10.66;66.23
13235;BME280;6683;48.506;9.050;2023-04-27T00:41:54;98167.19;;;10.64;65.83
13235;BME280;6683;48.506;9.050;2023-04-27T00:44:57;98166.56;;;10.62;65.79
13235;BME280;6683;48.506;9.050;2023-04-27T00:48:00;98165.16;;;10.60;65.85
13235;BME280;6683;48.506;9.050;2023-04-27T00:51:03;98154.13;;;10.56;66.24
13235;BME280;6683;48.506;9.050;2023-04-27T00:54:07;98155.78;;;10.57;66.22
13235;BME280;6683;48.506;9.050;2023-04-27T00:57:10;98154.13;;;10.56;66.11
13235;BME280;6683;48.506;9.050;2023-04-27T01:00:13;98145.59;;;10.54;66.37
13235;BME280;6683;48.506;9.050;2023-04-27T01:03:16;98140.69;;;10.51;66.41
13235;BME280;6683;48.506;9.050;2023-04-27T01:06:19;98155.50;;;10.52;66.43
13235;BME280;6683;48.506;9.050;2023-04-27T01:09:22;98152.25;;;10.50;66.63
13235;BME280;6683;48.506;9.050;2023-04-27T01:12:25;98149.81;;;10.49;66.76
13235;BME280;6683;48.506;9.050;2023-04-27T01:15:27;98154.63;;;10.45;66.55
13235;BME280;6683;48.506;9.050;2023-04-27T01:18:30;98164.72;;;10.41;66.63
13235;BME280;6683;48.506;9.050;2023-04-27T01:21:33;98168.56;;;10.39;66.84
13235;BME280;6683;48.506;9.050;2023-04-27T01:24:37;98166.09;;;10.37;66.67
13235;BME280;6683;48.506;9.050;2023-04-27T01:27:40;98165.47;;;10.35;66.98
13235;BME280;6683;48.506;9.050;2023-04-27T01:30:42;98169.94;;;10.35;67.00
13235;BME280;6683;48.506;9.050;2023-04-27T01:33:45;98175.03;;;10.36;67.24
13235;BME280;6683;48.506;9.050;2023-04-27T01:36:48;98176.66;;;10.37;67.22
13235;BME280;6683;48.506;9.050;2023-04-27T01:39:51;98174.41;;;10.34;66.89
13235;BME280;6683;48.506;9.050;2023-04-27T01:42:54;98171.78;;;10.34;67.00
13235;BME280;6683;48.506;9.050;2023-04-27T01:46:03;98164.03;;;10.33;67.17
13235;BME280;6683;48.506;9.050;2023-04-27T01:49:06;98164.41;;;10.30;66.85
13235;BME280;6683;48.506;9.050;2023-04-27T01:52:08;98168.22;;;10.27;66.99
13235;BME280;6683;48.506;9.050;2023-04-27T01:55:12;98175.69;;;10.24;67.17
13235;BME280;6683;48.506;9.050;2023-04-27T01:58:15;98168.34;;;10.19;67.16
13235;BME280;6683;48.506;9.050;2023-04-27T02:01:18;98171.31;;;10.16;67.22
13235;BME280;6683;48.506;9.050;2023-04-27T02:04:20;98173.53;;;10.13;67.27
13235;BME280;6683;48.506;9.050;2023-04-27T02:07:23;98177.16;;;10.12;67.29
13235;BME280;6683;48.506;9.050;2023-04-27T02:10:27;98175.53;;;10.11;67.23
13235;BME280;6683;48.506;9.050;2023-04-27T02:13:29;98174.88;;;10.09;67.41
13235;BME280;6683;48.506;9.050;2023-04-27T02:16:32;98172.22;;;10.09;67.28
13235;BME280;6683;48.506;9.050;2023-04-27T02:19:35;98176.47;;;10.10;67.44
13235;BME280;6683;48.506;9.050;2023-04-27T02:22:40;98180.97;;;10.09;67.46
13235;BME280;6683;48.506;9.050;2023-04-27T02:25:44;98182.78;;;10.09;67.36
13235;BME280;6683;48.506;9.050;2023-04-27T02:28:47;98183.75;;;10.08;67.43
13235;BME280;6683;48.506;9.050;2023-04-27T02:31:50;98182.97;;;10.07;67.76
13235;BME280;6683;48.506;9.050;2023-04-27T02:34:52;98184.41;;;10.10;67.69
13235;BME280;6683;48.506;9.050;2023-04-27T02:37:56;98177.34;;;10.10;67.50
13235;BME280;6683;48.506;9.050;2023-04-27T02:41:00;98182.63;;;10.10;67.86
13235;BME280;6683;48.506;9.050;2023-04-27T02:44:03;98187.88;;;10.10;67.42
13235;BME280;6683;48.506;9.050;2023-04-27T02:47:07;98189.66;;;10.10;67.45
13235;BME280;6683;48.506;9.050;2023-04-27T02:50:12;98192.50;;;10.08;67.52
13235;BME280;6683;48.506;9.050;2023-04-27T02:53:15;98185.75;;;10.06;67.67
13235;BME280;6683;48.506;9.050;2023-04-27T02:56:19;98193.69;;;10.06;67.73
13235;BME280;6683;48.506;9.050;2023-04-27T02:59:22;98187.41;;;10.07;68.16
13235;BME280;6683;48.506;9.050;2023-04-27T03:02:24;98179.31;;;10.08;68.04
13235;BME280;6683;48.506;9.050;2023-04-27T03:05:27;98182.63;;;10.10;68.30
13235;BME280;6683;48.506;9.050;2023-04-27T03:08:31;98176.47;;;10.10;68.29
13235;BME280;6683;48.506;9.050;2023-04-27T03:11:35;98189.66;;;10.10;67.95
13235;BME280;6683;48.506;9.050;2023-04-27T03:14:37;98176.66;;;10.08;68.09
13235;BME280;6683;48.506;9.050;2023-04-27T03:17:40;98183.13;;;10.06;68.19
13235;BME280;6683;48.506;9.050;2023-04-27T03:20:43;98183.94;;;10.06;68.27
13235;BME280;6683;48.506;9.050;2023-04-27T03:23:46;98190.25;;;10.05;68.42
13235;BME280;6683;48.506;9.050;2023-04-27T03:26:50;98192.25;;;10.03;68.41
13235;BME280;6683;48.506;9.050;2023-04-27T03:29:52;98186.31;;;10.01;67.97
13235;BME280;6683;48.506;9.050;2023-04-27T03:32:55;98197.69;;;10.02;68.23
13235;BME280;6683;48.506;9.050;2023-04-27T03:35:58;98195.88;;;10.02;68.33
13235;BME280;6683;48.506;9.050;2023-04-27T03:39:01;98198.50;;;10.02;68.40
13235;BME280;6683;48.506;9.050;2023-04-27T03:42:05;98197.88;;;10.00;68.45
13235;BME280;6683;48.506;9.050;2023-04-27T03:45:08;98191.97;;;9.98;68.29
13235;BME280;6683;48.506;9.050;2023-04-27T03:48:12;98204.50;;;9.96;68.24
13235;BME280;6683;48.506;9.050;2023-04-27T03:51:16;98202.88;;;9.95;68.58
13235;BME280;6683;48.506;9.050;2023-04-27T03:54:18;98198.59;;;9.94;68.51
13235;BME280;6683;48.506;9.050;2023-04-27T03:57:23;98207.69;;;9.92;68.65
13235;BME280;6683;48.506;9.050;2023-04-27T04:00:26;98202.59;;;9.90;68.30
13235;BME280;6683;48.506;9.050;2023-04-27T04:03:28;98199.97;;;9.90;68.57
13235;BME280;6683;48.506;9.050;2023-04-27T04:06:31;98198.31;;;9.89;68.54
13235;BME280;6683;48.506;9.050;2023-04-27T04:09:33;98201.78;;;9.90;68.67
13235;BME280;6683;48.506;9.050;2023-04-27T04:12:37;98206.22;;;9.89;68.49
13235;BME280;6683;48.506;9.050;2023-04-27T04:15:39;98207.06;;;9.90;68.79
13235;BME280;6683;48.506;9.050;2023-04-27T04:18:41;98213.59;;;9.94;69.10
13235;BME280;6683;48.506;9.050;2023-04-27T04:21:44;98205.50;;;9.95;68.85
13235;BME280;6683;48.506;9.050;2023-04-27T04:24:46;98213.88;;;9.99;69.03
13235;BME280;6683;48.506;9.050;2023-04-27T04:27:50;98215.31;;;10.01;68.92
13235;BME280;6683;48.506;9.050;2023-04-27T04:30:52;98214.78;;;10.06;68.89
13235;BME280;6683;48.506;9.050;2023-04-27T04:33:55;98210.78;;;10.10;69.15
13235;BME280;6683;48.506;9.050;2023-04-27T04:36:57;98214.91;;;10.12;68.95
13235;BME280;6683;48.506;9.050;2023-04-27T04:39:59;98214.53;;;10.15;68.89
13235;BME280;6683;48.506;9.050;2023-04-27T04:43:03;98212.53;;;10.17;69.33
13235;BME280;6683;48.506;9.050;2023-04-27T04:46:05;98225.19;;;10.22;69.19
13235;BME280;6683;48.506;9.050;2023-04-27T04:49:08;98220.34;;;10.25;69.14
13235;BME280;6683;48.506;9.050;2023-04-27T04:52:10;98221.63;;;10.29;69.16
13235;BME280;6683;48.506;9.050;2023-04-27T04:55:13;98220.44;;;10.32;69.21
13235;BME280;6683;48.506;9.050;2023-04-27T04:58:16;98225.16;;;10.36;69.22
13235;BME280;6683;48.506;9.050;2023-04-27T05:01:18;98232.34;;;10.42;69.04
13235;BME280;6683;48.506;9.050;2023-04-27T05:04:21;98226.69;;;10.45;68.92
13235;BME280;6683;48.506;9.050;2023-04-27T05:07:24;98218.41;;;10.49;68.89
13235;BME280;6683;48.506;9.050;2023-04-27T05:10:26;98221.50;;;10.52;69.01
13235;BME280;6683;48.506;9.050;2023-04-27T05:13:30;98219.47;;;10.54;68.92
13235;BME280;6683;48.506;9.050;2023-04-27T05:16:32;98224.19;;;10.59;68.89
13235;BME280;6683;48.506;9.050;2023-04-27T05:19:35;98223.66;;;10.63;69.04
13235;BME280;6683;48.506;9.050;2023-04-27T05:22:37;98221.25;;;10.68;69.52
13235;BME280;6683;48.506;9.050;2023-04-27T05:25:39;98220.53;;;10.74;69.51
13235;BME280;6683;48.506;9.050;2023-04-27T05:28:44;98222.44;;;10.80;69.68
13235;BME280;6683;48.506;9.050;2023-04-27T05:31:49;98232.03;;;10.88;69.48
13235;BME280;6683;48.506;9.050;2023-04-27T05:34:51;98232.31;;;10.93;69.58
13235;BME280;6683;48.506;9.050;2023-04-27T05:37:54;98237.84;;;10.98;69.21
13235;BME280;6683;48.506;9.050;2023-04-27T05:40:57;98234.63;;;11.02;69.08
13235;BME280;6683;48.506;9.050;2023-04-27T05:44:01;98232.06;;;11.09;69.55
13235;BME280;6683;48.506;9.050;2023-04-27T05:47:04;98227.28;;;11.19;69.83
13235;BME280;6683;48.506;9.050;2023-04-27T05:50:08;98228.03;;;11.34;70.00
13235;BME280;6683;48.506;9.050;2023-04-27T05:53:11;98228.94;;;11.48;69.77
13235;BME280;6683;48.506;9.050;2023-04-27T05:56:13;98239.25;;;11.64;69.98
13235;BME280;6683;48.506;9.050;2023-04-27T05:59:17;98237.53;;;11.77;69.82
13235;BME280;6683;48.506;9.050;2023-04-27T06:02:20;98243.97;;;11.96;69.70
13235;BME280;6683;48.506;9.050;2023-04-27T06:05:22;98244.88;;;12.10;69.71
13235;BME280;6683;48.506;9.050;2023-04-27T06:08:25;98247.38;;;12.18;69.34
13235;BME280;6683;48.506;9.050;2023-04-27T06:11:28;98248.22;;;12.25;69.12
13235;BME280;6683;48.506;9.050;2023-04-27T06:14:32;98253.31;;;12.26;68.80
13235;BME280;6683;48.506;9.050;2023-04-27T06:17:35;98254.56;;;12.30;68.64
13235;BME280;6683;48.506;9.050;2023-04-27T06:20:38;98258.66;;;12.33;68.62
13235;BME280;6683;48.506;9.050;2023-04-27T06:23:42;98269.09;;;12.41;68.78
13235;BME280;6683;48.506;9.050;2023-04-27T06:26:44;98268.50;;;12.52;68.61
13235;BME280;6683;48.506;9.050;2023-04-27T06:29:48;98265.91;;;12.65;68.74
13235;BME280;6683;48.506;9.050;2023-04-27T06:32:51;98274.53;;;12.73;68.16
13235;BME280;6683;48.506;9.050;2023-04-27T06:35:53;98267.00;;;12.83;68.24
13235;BME280;6683;48.506;9.050;2023-04-27T06:38:56;98267.44;;;12.94;68.12
13235;BME280;6683;48.506;9.050;2023-04-27T06:41:59;98274.25;;;13.09;68.11
13235;BME280;6683;48.506;9.050;2023-04-27T06:45:06;98269.00;;;13.22;67.70
13235;BME280;6683;48.506;9.050;2023-04-27T06:48:09;98266.34;;;13.35;67.57
13235;BME280;6683;48.506;9.050;2023-04-27T06:51:11;98266.97;;;13.44;67.39
13235;BME280;6683;48.506;9.050;2023-04-27T06:54:14;98273.72;;;13.53;67.27
13235;BME280;6683;48.506;9.050;2023-04-27T06:57:16;98270.25;;;13.59;67.40
13235;BME280;6683;48.506;9.050;2023-04-27T07:00:21;98273.09;;;13.71;67.41
13235;BME280;6683;48.506;9.050;2023-04-27T07:03:24;98272.72;;;13.87;67.46
13235;BME280;6683;48.506;9.050;2023-04-27T07:06:26;98276.56;;;14.04;67.35
13235;BME280;6683;48.506;9.050;2023-04-27T07:09:29;98273.06;;;14.16;67.35
13235;BME280;6683;48.506;9.050;2023-04-27T07:12:32;98276.75;;;14.28;66.91
13235;BME280;6683;48.506;9.050;2023-04-27T07:15:36;98270.19;;;14.37;66.75
13235;BME280;6683;48.506;9.050;2023-04-27T07:18:38;98263.00;;;14.51;66.78
13235;BME280;6683;48.506;9.050;2023-04-27T07:21:41;98261.94;;;14.65;66.38
13235;BME280;6683;48.506;9.050;2023-04-27T07:24:44;98264.09;;;14.81;66.02
13235;BME280;6683;48.506;9.050;2023-04-27T07:27:47;98262.81;;;14.97;65.67
13235;BME280;6683;48.506;9.050;2023-04-27T07:30:50;98258.66;;;15.07;65.07
13235;BME280;6683;48.506;9.050;2023-04-27T07:33:52;98261.06;;;15.15;65.11
13235;BME280;6683;48.506;9.050;2023-04-27T07:36:55;98262.38;;;15.31;65.06
13235;BME280;6683;48.506;9.050;2023-04-27T07:39:58;98254.97;;;15.46;64.50
13235;BME280;6683;48.506;9.050;2023-04-27T07:43:02;98255.22;;;15.63;64.39
13235;BME280;6683;48.506;9.050;2023-04-27T07:46:06;98254.03;;;15.83;64.19
13235;BME280;6683;48.506;9.050;2023-04-27T07:49:09;98253.28;;;16.01;63.63
13235;BME280;6683;48.506;9.050;2023-04-27T07:52:13;98244.66;;;16.24;63.22
13235;BME280;6683;48.506;9.050;2023-04-27T07:55:15;98251.84;;;16.41;62.79
13235;BME280;6683;48.506;9.050;2023-04-27T07:58:18;98249.72;;;16.50;62.22
13235;BME280;6683;48.506;9.050;2023-04-27T08:01:22;98251.44;;;16.62;62.24
13235;BME280;6683;48.506;9.050;2023-04-27T08:04:24;98255.09;;;16.79;61.89
13235;BME280;6683;48.506;9.050;2023-04-27T08:07:27;98256.09;;;16.97;62.01
13235;BME280;6683;48.506;9.050;2023-04-27T08:10:29;98252.00;;;17.12;61.83
13235;BME280;6683;48.506;9.050;2023-04-27T08:13:33;98241.50;;;17.29;61.39
13235;BME280;6683;48.506;9.050;2023-04-27T08:16:38;98248.59;;;17.35;61.33
13235;BME280;6683;48.506;9.050;2023-04-27T08:19:41;98250.78;;;17.38;61.09
13235;BME280;6683;48.506;9.050;2023-04-27T08:22:43;98247.00;;;17.45;61.11
13235;BME280;6683;48.506;9.050;2023-04-27T08:25:46;98237.31;;;17.63;60.93
13235;BME280;6683;48.506;9.050;2023-04-27T08:28:48;98241.03;;;17.85;60.60
13235;BME280;6683;48.506;9.050;2023-04-27T08:31:52;98245.56;;;18.07;60.38
13235;BME280;6683;48.506;9.050;2023-04-27T08:34:54;98243.47;;;18.32;60.06
13235;BME280;6683;48.506;9.050;2023-04-27T08:37:57;98225.44;;;18.51;59.61
13235;BME280;6683;48.506;9.050;2023-04-27T08:40:59;98220.56;;;18.60;59.19
13235;BME280;6683;48.506;9.050;2023-04-27T08:44:06;98224.72;;;18.67;59.12
13235;BME280;6683;48.506;9.050;2023-04-27T08:47:10;98225.06;;;18.71;58.74
13235;BME280;6683;48.506;9.050;2023-04-27T08:50:13;98215.97;;;18.72;58.56
13235;BME280;6683;48.506;9.050;2023-04-27T08:53:19;98219.91;;;18.81;58.77
13235;BME280;6683;48.506;9.050;2023-04-27T08:56:24;98223.34;;;18.93;58.22
13235;BME280;6683;48.506;9.050;2023-04-27T08:59:27;98221.78;;;19.08;58.16
13235;BME280;6683;48.506;9.050;2023-04-27T09:02:33;98219.09;;;19.37;57.69
13235;BME280;6683;48.506;9.050;2023-04-27T09:05:36;98220.34;;;19.62;57.18
13235;BME280;6683;48.506;9.050;2023-04-27T09:08:43;98211.63;;;19.88;57.16
13235;BME280;6683;48.506;9.050;2023-04-27T09:11:46;98213.53;;;20.10;56.37
13235;BME280;6683;48.506;9.050;2023-04-27T09:14:57;98219.16;;;20.25;56.29
13235;BME280;6683;48.506;9.050;2023-04-27T09:18:00;98217.72;;;20.39;55.68
13235;BME280;6683;48.506;9.050;2023-04-27T09:21:04;98210.81;;;20.64;55.27
13235;BME280;6683;48.506;9.050;2023-04-27T09:24:11;98215.38;;;20.86;54.83
13235;BME280;6683;48.506;9.050;2023-04-27T09:27:20;98211.66;;;21.13;54.43
13235;BME280;6683;48.506;9.050;2023-04-27T09:30:23;98215.84;;;21.31;53.65
13235;BME280;6683;48.506;9.050;2023-04-27T09:33:29;98210.53;;;21.36;53.62
13235;BME280;6683;48.506;9.050;2023-04-27T09:36:32;98205.50;;;21.44;52.85
13235;BME280;6683;48.506;9.050;2023-04-27T09:39:35;98200.44;;;21.48;52.90
13235;BME280;6683;48.506;9.050;2023-04-27T09:42:38;98201.13;;;21.65;52.56
13235;BME280;6683;48.506;9.050;2023-04-27T09:45:41;98207.78;;;21.89;52.13
13235;BME280;6683;48.506;9.050;2023-04-27T09:48:46;98205.75;;;22.06;52.49
13235;BME280;6683;48.506;9.050;2023-04-27T09:51:50;98202.84;;;22.18;52.02
13235;BME280;6683;48.506;9.050;2023-04-27T09:54:56;98198.00;;;22.20;51.64
13235;BME280;6683;48.506;9.050;2023-04-27T10:01:53;98196.13;;;22.20;51.20
13235;BME280;6683;48.506;9.050;2023-04-27T10:08:42;98194.38;;;22.46;51.72
13235;BME280;6683;48.506;9.050;2023-04-27T10:11:45;98192.25;;;22.53;51.51
13235;BME280;6683;48.506;9.050;2023-04-27T10:14:49;98191.25;;;22.64;50.95
13235;BME280;6683;48.506;9.050;2023-04-27T10:17:52;98186.75;;;22.80;50.79
13235;BME280;6683;48.506;9.050;2023-04-27T10:21:07;98184.91;;;22.95;50.66
13235;BME280;6683;48.506;9.050;2023-04-27T10:24:11;98190.31;;;23.11;50.00
13235;BME280;6683;48.506;9.050;2023-04-27T10:27:16;98190.59;;;23.19;50.08
13235;BME280;6683;48.506;9.050;2023-04-27T10:30:24;98194.97;;;23.40;50.45
13235;BME280;6683;48.506;9.050;2023-04-27T10:33:27;98183.38;;;23.65;49.91
13235;BME280;6683;48.506;9.050;2023-04-27T10:36:35;98186.59;;;23.87;49.97
13235;BME280;6683;48.506;9.050;2023-04-27T10:39:40;98179.03;;;23.94;49.07
13235;BME280;6683;48.506;9.050;2023-04-27T10:42:44;98181.69;;;24.14;48.70
13235;BME280;6683;48.506;9.050;2023-04-27T10:45:46;98169.78;;;24.30;47.52
13235;BME280;6683;48.506;9.050;2023-04-27T10:48:49;98166.00;;;24.36;47.40
13235;BME280;6683;48.506;9.050;2023-04-27T10:51:53;98171.06;;;24.48;47.01
13235;BME280;6683;48.506;9.050;2023-04-27T10:54:56;98177.25;;;24.58;45.32
13235;BME280;6683;48.506;9.050;2023-04-27T10:57:58;98163.41;;;24.70;45.68
13235;BME280;6683;48.506;9.050;2023-04-27T11:01:01;98163.00;;;25.02;45.58
13235;BME280;6683;48.506;9.050;2023-04-27T11:04:04;98168.81;;;25.19;44.88
13235;BME280;6683;48.506;9.050;2023-04-27T11:07:09;98162.97;;;25.07;45.00
13235;BME280;6683;48.506;9.050;2023-04-27T11:10:15;98166.22;;;25.04;44.90
13235;BME280;6683;48.506;9.050;2023-04-27T11:13:20;98157.97;;;24.85;44.99
13235;BME280;6683;48.506;9.050;2023-04-27T11:16:22;98166.47;;;24.53;44.83
13235;BME280;6683;48.506;9.050;2023-04-27T11:19:25;98153.34;;;24.27;44.97
13235;BME280;6683;48.506;9.050;2023-04-27T11:22:28;98149.84;;;24.26;43.96
13235;BME280;6683;48.506;9.050;2023-04-27T11:25:31;98143.84;;;24.39;44.78
13235;BME280;6683;48.506;9.050;2023-04-27T11:28:33;98148.47;;;24.93;44.64
13235;BME280;6683;48.506;9.050;2023-04-27T11:31:41;98135.72;;;25.37;44.28
13235;BME280;6683;48.506;9.050;2023-04-27T11:34:50;98142.50;;;25.68;43.93
13235;BME280;6683;48.506;9.050;2023-04-27T11:37:57;98152.31;;;25.88;43.63
13235;BME280;6683;48.506;9.050;2023-04-27T11:41:02;98148.44;;;25.99;43.27
13235;BME280;6683;48.506;9.050;2023-04-27T11:44:07;98142.47;;;26.26;42.97
13235;BME280;6683;48.506;9.050;2023-04-27T11:47:15;98142.38;;;26.54;42.57
13235;BME280;6683;48.506;9.050;2023-04-27T11:50:19;98144.59;;;26.71;42.35
13235;BME280;6683;48.506;9.050;2023-04-27T11:53:33;98141.47;;;26.64;42.30
13235;BME280;6683;48.506;9.050;2023-04-27T11:56:38;98141.72;;;26.62;42.31
13235;BME280;6683;48.506;9.050;2023-04-27T11:59:41;98135.66;;;26.70;41.61
13235;BME280;6683;48.506;9.050;2023-04-27T12:02:43;98133.34;;;26.64;41.88
13235;BME280;6683;48.506;9.050;2023-04-27T12:05:49;98121.88;;;26.48;41.44
13235;BME280;6683;48.506;9.050;2023-04-27T12:08:54;98130.22;;;26.04;42.06
13235;BME280;6683;48.506;9.050;2023-04-27T12:11:57;98124.16;;;25.65;42.25
13235;BME280;6683;48.506;9.050;2023-04-27T12:14:59;98126.03;;;25.31;42.76
13235;BME280;6683;48.506;9.050;2023-04-27T12:18:02;98118.72;;;24.98;43.43
13235;BME280;6683;48.506;9.050;2023-04-27T12:21:05;98116.47;;;24.66;43.67
13235;BME280;6683;48.506;9.050;2023-04-27T12:24:09;98111.47;;;24.39;43.98
13235;BME280;6683;48.506;9.050;2023-04-27T12:27:12;98118.84;;;24.19;44.57
13235;BME280;6683;48.506;9.050;2023-04-27T12:30:15;98113.25;;;24.05;44.70
13235;BME280;6683;48.506;9.050;2023-04-27T12:33:18;98117.00;;;23.94;44.75
13235;BME280;6683;48.506;9.050;2023-04-27T12:36:21;98117.84;;;23.84;44.99
13235;BME280;6683;48.506;9.050;2023-04-27T12:39:25;98114.91;;;23.76;44.95
13235;BME280;6683;48.506;9.050;2023-04-27T12:42:28;98122.47;;;23.69;45.01
13235;BME280;6683;48.506;9.050;2023-04-27T12:45:30;98120.31;;;23.56;45.25
13235;BME280;6683;48.506;9.050;2023-04-27T12:48:33;98113.03;;;23.51;45.25
13235;BME280;6683;48.506;9.050;2023-04-27T12:51:36;98105.50;;;23.48;45.64
13235;BME280;6683;48.506;9.050;2023-04-27T12:54:40;98114.94;;;23.56;45.28
13235;BME280;6683;48.506;9.050;2023-04-27T12:57:42;98111.94;;;23.57;45.45
13235;BME280;6683;48.506;9.050;2023-04-27T13:00:44;98109.81;;;23.49;45.03
13235;BME280;6683;48.506;9.050;2023-04-27T13:03:47;98098.22;;;23.39;45.15
13235;BME280;6683;48.506;9.050;2023-04-27T13:06:50;98097.44;;;23.43;45.09
13235;BME280;6683;48.506;9.050;2023-04-27T13:09:54;98089.06;;;23.65;45.25
13235;BME280;6683;48.506;9.050;2023-04-27T13:12:56;98084.69;;;23.79;44.97
13235;BME280;6683;48.506;9.050;2023-04-27T13:15:59;98087.94;;;23.81;45.00
13235;BME280;6683;48.506;9.050;2023-04-27T13:19:01;98086.25;;;24.00;44.92
13235;BME280;6683;48.506;9.050;2023-04-27T13:22:04;98080.56;;;24.02;44.44
13235;BME280;6683;48.506;9.050;2023-04-27T13:25:11;98086.00;;;23.97;44.58
13235;BME280;6683;48.506;9.050;2023-04-27T13:28:14;98092.75;;;23.89;44.74
13235;BME280;6683;48.506;9.050;2023-04-27T13:31:16;98089.03;;;23.80;44.69
13235;BME280;6683;48.506;9.050;2023-04-27T13:34:18;98095.75;;;23.72;44.75
13235;BME280;6683;48.506;9.050;2023-04-27T13:37:21;98087.41;;;23.64;44.86
13235;BME280;6683;48.506;9.050;2023-04-27T13:40:25;98075.84;;;23.58;44.76
13235;BME280;6683;48.506;9.050;2023-04-27T13:43:28;98085.84;;;23.53;44.63
13235;BME280;6683;48.506;9.050;2023-04-27T13:46:30;98083.94;;;23.53;44.99
13235;BME280;6683;48.506;9.050;2023-04-27T13:49:33;98080.19;;;23.54;45.15
13235;BME280;6683;48.506;9.050;2023-04-27T13:52:37;98092.56;;;23.50;45.19
13235;BME280;6683;48.506;9.050;2023-04-27T13:55:41;98076.13;;;23.47;45.27
13235;BME280;6683;48.506;9.050;2023-04-27T13:58:43;98073.19;;;23.33;45.29
13235;BME280;6683;48.506;9.050;2023-04-27T14:01:46;98074.00;;;23.24;45.59
13235;BME280;6683;48.506;9.050;2023-04-27T14:04:48;98078.84;;;23.17;45.47
13235;BME280;6683;48.506;9.050;2023-04-27T14:07:51;98077.50;;;23.09;45.58
13235;BME280;6683;48.506;9.050;2023-04-27T14:10:55;98077.22;;;23.05;45.93
13235;BME280;6683;48.506;9.050;2023-04-27T14:13:58;98072.91;;;23.04;45.66
13235;BME280;6683;48.506;9.050;2023-04-27T14:17:01;98070.22;;;23.04;46.01
13235;BME280;6683;48.506;9.050;2023-04-27T14:20:05;98063.75;;;23.00;45.82
13235;BME280;6683;48.506;9.050;2023-04-27T14:23:09;98061.34;;;23.04;46.10
13235;BME280;6683;48.506;9.050;2023-04-27T14:26:13;98061.34;;;23.09;46.27
13235;BME280;6683;48.506;9.050;2023-04-27T14:29:15;98060.78;;;23.12;46.12
13235;BME280;6683;48.506;9.050;2023-04-27T14:32:18;98063.75;;;23.11;46.00
13235;BME280;6683;48.506;9.050;2023-04-27T14:35:21;98060.53;;;23.09;45.87
13235;BME280;6683;48.506;9.050;2023-04-27T14:38:24;98059.97;;;23.01;45.59
13235;BME280;6683;48.506;9.050;2023-04-27T14:41:28;98065.91;;;22.98;45.98
13235;BME280;6683;48.506;9.050;2023-04-27T14:44:30;98068.34;;;23.00;45.92
13235;BME280;6683;48.506;9.050;2023-04-27T14:47:33;98069.94;;;23.01;46.14
13235;BME280;6683;48.506;9.050;2023-04-27T14:50:35;98068.59;;;23.03;45.98
13235;BME280;6683;48.506;9.050;2023-04-27T14:53:38;98062.97;;;23.05;45.81
13235;BME280;6683;48.506;9.050;2023-04-27T14:56:43;98073.72;;;23.05;45.95
13235;BME280;6683;48.506;9.050;2023-04-27T14:59:46;98061.06;;;23.05;45.83
13235;BME280;6683;48.506;9.050;2023-04-27T15:02:48;98068.59;;;23.03;45.93
13235;BME280;6683;48.506;9.050;2023-04-27T15:05:51;98073.16;;;23.03;45.61
13235;BME280;6683;48.506;9.050;2023-04-27T15:08:53;98069.41;;;23.04;46.01
13235;BME280;6683;48.506;9.050;2023-04-27T15:11:57;98062.97;;;23.05;45.92
13235;BME280;6683;48.506;9.050;2023-04-27T15:14:59;98060.78;;;23.02;46.13
13235;BME280;6683;48.506;9.050;2023-04-27T15:18:02;98065.38;;;22.96;46.28
13235;BME280;6683;48.506;9.050;2023-04-27T15:21:05;98066.47;;;22.90;45.92
13235;BME280;6683;48.506;9.050;2023-04-27T15:24:08;98057.81;;;22.83;45.96
13235;BME280;6683;48.506;9.050;2023-04-27T15:27:12;98057.81;;;22.73;46.15
13235;BME280;6683;48.506;9.050;2023-04-27T15:30:14;98055.13;;;22.63;46.31
13235;BME280;6683;48.506;9.050;2023-04-27T15:33:17;98055.31;;;22.52;46.39
13235;BME280;6683;48.506;9.050;2023-04-27T15:36:20;98053.13;;;22.34;46.00
13235;BME280;6683;48.506;9.050;2023-04-27T15:39:22;98051.22;;;22.19;46.04
13235;BME280;6683;48.506;9.050;2023-04-27T15:42:26;98064.63;;;22.09;46.00
13235;BME280;6683;48.506;9.050;2023-04-27T15:45:29;98053.03;;;21.98;46.30
13235;BME280;6683;48.506;9.050;2023-04-27T15:48:32;98059.19;;;21.94;45.85
13235;BME280;6683;48.506;9.050;2023-04-27T15:51:35;98049.75;;;21.91;46.31
13235;BME280;6683;48.506;9.050;2023-04-27T15:54:37;98051.13;;;21.94;46.08
13235;BME280;6683;48.506;9.050;2023-04-27T15:57:41;98043.59;;;21.96;46.31
13235;BME280;6683;48.506;9.050;2023-04-27T16:00:44;98041.44;;;22.03;46.63
13235;BME280;6683;48.506;9.050;2023-04-27T16:03:46;98040.44;;;22.14;46.49
13235;BME280;6683;48.506;9.050;2023-04-27T16:06:48;98025.91;;;22.20;46.40
13235;BME280;6683;48.506;9.050;2023-04-27T16:09:51;98024.88;;;22.26;46.24
13235;BME280;6683;48.506;9.050;2023-04-27T16:12:55;98019.22;;;22.33;45.97
13235;BME280;6683;48.506;9.050;2023-04-27T16:15:58;98014.69;;;22.38;46.04
13235;BME280;6683;48.506;9.050;2023-04-27T16:19:00;98011.19;;;22.48;45.99
13235;BME280;6683;48.506;9.050;2023-04-27T16:22:03;98005.34;;;22.61;46.04
13235;BME280;6683;48.506;9.050;2023-04-27T16:25:07;98005.06;;;22.72;45.62
13235;BME280;6683;48.506;9.050;2023-04-27T16:28:12;98003.44;;;22.76;45.21
13235;BME280;6683;48.506;9.050;2023-04-27T16:31:15;98003.44;;;22.76;45.16
13235;BME280;6683;48.506;9.050;2023-04-27T16:34:17;98004.00;;;22.73;45.45